Time,TemperatureF,DewpointF,PressureIn,WindDirection,WindDirectionDegrees,WindSpeedMPH,WindSpeedGustMPH,Humidity,HourlyPrecipIn,Conditions,Clouds,dailyrainin,SoftwareType,DateUTC
2013-10-04 00:40:00,62.0,58.0,30.09,NW,323,0.0,0.0,88,0.00,,,0.00,,2013-10-04 04:40:00,
2013-10-04 01:56:00,61.0,58.0,30.09,NW,323,0.0,0.0,89,0.00,,,0.00,,2013-10-04 05:56:00,
2013-10-04 02:19:00,61.0,58.0,30.08,NW,323,0.0,0.0,89,0.00,,,0.00,,2013-10-04 06:19:00,
2013-10-04 02:27:00,61.0,58.0,30.08,NW,323,0.0,0.0,89,0.00,,,0.00,,2013-10-04 06:27:00,
2013-10-04 02:49:00,60.0,57.0,30.09,NW,323,0.0,0.0,90,0.00,,,0.00,,2013-10-04 06:49:00,
2013-10-04 02:59:00,60.0,57.0,30.09,NW,323,0.0,0.0,90,0.00,,,0.00,,2013-10-04 06:59:00,
2013-10-04 03:28:00,59.0,57.0,30.09,NW,323,0.0,0.0,92,0.00,,,0.00,,2013-10-04 07:28:00,
2013-10-04 03:55:00,59.0,57.0,30.09,NW,323,0.0,0.0,93,0.00,,,0.00,,2013-10-04 07:55:00,
2013-10-04 04:27:00,59.0,57.0,30.08,NW,323,0.0,0.0,92,0.00,,,0.00,,2013-10-04 08:27:00,
2013-10-04 04:55:00,59.0,57.0,30.08,NW,323,0.0,0.0,92,0.00,,,0.00,,2013-10-04 08:55:00,
2013-10-04 04:56:00,58.0,56.0,30.09,NW,323,0.0,0.0,93,0.00,,,0.00,,2013-10-04 08:56:00,
2013-10-04 05:17:00,58.0,56.0,30.08,NW,323,0.0,0.0,93,0.00,,,0.00,,2013-10-04 09:17:00,
2013-10-04 05:28:00,58.0,56.0,30.09,NW,323,0.0,0.0,93,0.00,,,0.00,,2013-10-04 09:28:00,
2013-10-04 05:39:00,58.0,56.0,30.09,NW,323,0.0,0.0,93,0.00,,,0.00,,2013-10-04 09:39:00,
2013-10-04 05:49:00,58.0,56.0,30.09,NW,323,0.0,0.0,93,0.00,,,0.00,,2013-10-04 09:49:00,
2013-10-04 06:22:00,57.0,55.0,30.09,NW,323,0.0,0.0,93,0.00,,,0.00,,2013-10-04 10:22:00,
2013-10-04 06:31:00,56.0,54.0,30.09,NW,323,0.0,0.0,93,0.00,,,0.00,,2013-10-04 10:31:00,
2013-10-04 06:58:00,57.0,55.0,30.09,NW,323,0.0,0.0,94,0.00,,,0.00,,2013-10-04 10:58:00,
2013-10-04 07:16:00,56.0,54.0,30.11,NW,323,0.0,0.0,94,0.00,,,0.00,,2013-10-04 11:16:00,
2013-10-04 07:29:00,56.0,54.0,30.11,NW,323,0.0,0.0,94,0.00,,,0.00,,2013-10-04 11:29:00,
2013-10-04 07:57:00,56.0,54.0,30.11,NW,323,0.0,0.0,94,0.00,,,0.00,,2013-10-04 11:57:00,
2013-10-04 08:11:00,56.0,54.0,30.11,NW,323,0.0,0.0,94,0.00,,,0.00,,2013-10-04 12:11:00,
2013-10-04 08:31:00,55.0,53.0,30.12,NW,323,0.0,0.0,94,0.00,,,0.00,,2013-10-04 12:31:00,
2013-10-04 08:57:00,56.0,54.0,30.13,NNW,327,0.0,0.0,94,0.00,,,0.00,,2013-10-04 12:57:00,
2013-10-04 09:21:00,56.0,54.0,30.13,NNW,327,0.0,0.0,94,0.00,,,0.00,,2013-10-04 13:21:00,
2013-10-04 09:29:00,56.0,55.0,30.13,NNW,327,0.0,0.0,95,0.00,,,0.00,,2013-10-04 13:29:00,
2013-10-04 09:49:00,56.0,55.0,30.14,NNW,327,0.0,0.0,95,0.00,,,0.00,,2013-10-04 13:49:00,
2013-10-04 09:57:00,57.0,56.0,30.15,NNW,327,0.0,0.0,95,0.00,,,0.00,,2013-10-04 13:57:00,
2013-10-04 10:20:00,57.0,56.0,30.14,NNW,327,0.0,0.0,95,0.00,,,0.00,,2013-10-04 14:20:00,
2013-10-04 10:29:00,57.0,56.0,30.15,NNW,327,0.0,0.0,95,0.00,,,0.00,,2013-10-04 14:29:00,
2013-10-04 10:49:00,58.0,57.0,30.16,WNW,286,0.0,0.0,95,0.00,,,0.00,,2013-10-04 14:49:00,
2013-10-04 10:57:00,58.0,57.0,30.15,WNW,286,0.0,0.0,95,0.00,,,0.00,,2013-10-04 14:57:00,
2013-10-04 11:20:00,59.0,58.0,30.15,WNW,286,0.0,0.0,95,0.00,,,0.00,,2013-10-04 15:20:00,
2013-10-04 11:29:00,59.0,58.0,30.15,WNW,286,0.0,0.0,95,0.00,,,0.00,,2013-10-04 15:29:00,
2013-10-04 11:51:00,61.0,60.0,30.15,SSW,210,0.0,0.0,95,0.00,,,0.00,,2013-10-04 15:51:00,
2013-10-04 12:02:00,63.0,60.0,30.14,SSE,153,0.0,0.0,90,0.00,,,0.00,,2013-10-04 16:02:00,
2013-10-04 12:22:00,66.0,62.0,30.14,South,183,0.0,0.0,86,0.00,,,0.00,,2013-10-04 16:22:00,
2013-10-04 12:30:00,66.0,62.0,30.14,South,183,0.0,0.0,86,0.00,,,0.00,,2013-10-04 16:30:00,
2013-10-04 12:49:00,68.0,62.0,30.14,South,181,0.0,0.0,81,0.00,,,0.00,,2013-10-04 16:49:00,
2013-10-04 13:02:00,69.0,62.0,30.13,SSW,204,0.0,0.0,79,0.00,,,0.00,,2013-10-04 17:02:00,
2013-10-04 13:30:00,71.0,62.0,30.12,SSE,168,0.0,1.0,74,0.00,,,0.00,,2013-10-04 17:30:00,
2013-10-04 13:58:00,72.0,63.0,30.12,South,182,0.0,0.0,73,0.00,,,0.00,,2013-10-04 17:58:00,
2013-10-04 14:22:00,75.0,64.0,30.10,South,178,0.0,0.0,69,0.00,,,0.00,,2013-10-04 18:22:00,
2013-10-04 14:33:00,75.0,63.0,30.10,South,189,0.0,0.0,67,0.00,,,0.00,,2013-10-04 18:33:00,
2013-10-04 14:50:00,76.0,62.0,30.08,SSW,210,0.0,0.0,63,0.00,,,0.00,,2013-10-04 18:50:00,
2013-10-04 14:56:00,76.0,62.0,30.08,SSW,210,0.0,0.0,63,0.00,,,0.00,,2013-10-04 18:56:00,
2013-10-04 15:12:00,75.0,61.0,30.08,SSW,198,0.0,0.0,62,0.00,,,0.00,,2013-10-04 19:12:00,
2013-10-04 15:22:00,75.0,61.0,30.08,SSW,207,0.0,3.0,62,0.00,,,0.00,,2013-10-04 19:22:00,
2013-10-04 15:43:00,75.0,62.0,30.07,SSW,205,0.0,0.0,64,0.00,,,0.00,,2013-10-04 19:43:00,
2013-10-04 15:52:00,75.0,62.0,30.07,SSW,205,0.0,0.0,64,0.00,,,0.00,,2013-10-04 19:52:00,
2013-10-04 16:11:00,74.0,62.0,30.07,SSW,200,0.0,0.0,66,0.00,,,0.00,,2013-10-04 20:11:00,
2013-10-04 16:22:00,74.0,62.0,30.07,SSW,200,0.0,0.0,66,0.00,,,0.00,,2013-10-04 20:22:00,
2013-10-04 16:53:00,72.0,62.0,30.06,SSE,164,0.0,0.0,72,0.00,,,0.00,,2013-10-04 20:53:00,
2013-10-04 17:12:00,72.0,63.0,30.06,SSW,200,0.0,0.0,74,0.00,,,0.00,,2013-10-04 21:12:00,
2013-10-04 17:22:00,72.0,63.0,30.06,SSW,200,0.0,0.0,74,0.00,,,0.00,,2013-10-04 21:22:00,
2013-10-04 18:23:00,69.0,63.0,30.06,WNW,293,0.0,0.0,82,0.00,,,0.00,,2013-10-04 22:23:00,
2013-10-04 18:33:00,69.0,63.0,30.06,WNW,293,0.0,0.0,82,0.00,,,0.00,,2013-10-04 22:33:00,
2013-10-04 18:52:00,69.0,63.0,30.06,WNW,293,0.0,0.0,82,0.00,,,0.00,,2013-10-04 22:52:00,
2013-10-04 19:12:00,68.0,63.0,30.07,North,5,0.0,0.0,83,0.00,,,0.00,,2013-10-04 23:12:00,
2013-10-04 19:22:00,68.0,63.0,30.07,North,5,0.0,0.0,83,0.00,,,0.00,,2013-10-04 23:22:00,
2013-10-04 19:42:00,67.0,62.0,30.07,North,5,0.0,0.0,84,0.00,,,0.00,,2013-10-04 23:42:00,
2013-10-04 19:53:00,67.0,62.0,30.07,North,5,0.0,0.0,84,0.00,,,0.00,,2013-10-04 23:53:00,
2013-10-04 20:12:00,66.0,61.0,30.08,North,5,0.0,0.0,85,0.00,,,0.00,,2013-10-05 00:12:00,
2013-10-04 20:23:00,65.0,60.0,30.08,North,5,0.0,0.0,84,0.00,,,0.00,,2013-10-05 00:23:00,
2013-10-04 20:32:00,65.0,60.0,30.08,North,5,0.0,0.0,84,0.00,,,0.00,,2013-10-05 00:32:00,
2013-10-04 20:42:00,65.0,60.0,30.08,North,5,0.0,0.0,84,0.00,,,0.00,,2013-10-05 00:42:00,
2013-10-04 20:52:00,65.0,60.0,30.08,North,5,0.0,0.0,84,0.00,,,0.00,,2013-10-05 00:52:00,
2013-10-04 21:22:00,66.0,61.0,30.10,North,5,0.0,0.0,84,0.00,,,0.00,,2013-10-05 01:22:00,
2013-10-04 21:43:00,65.0,60.0,30.10,North,5,0.0,0.0,85,0.00,,,0.00,,2013-10-05 01:43:00,
2013-10-04 21:52:00,65.0,60.0,30.10,North,5,0.0,0.0,85,0.00,,,0.00,,2013-10-05 01:52:00,
2013-10-04 22:11:00,65.0,61.0,30.11,North,5,0.0,0.0,86,0.00,,,0.00,,2013-10-05 02:11:00,
2013-10-04 22:22:00,65.0,61.0,30.11,North,5,0.0,0.0,86,0.00,,,0.00,,2013-10-05 02:22:00,
2013-10-04 22:42:00,64.0,60.0,30.12,North,5,0.0,0.0,86,0.00,,,0.00,,2013-10-05 02:42:00,
2013-10-04 22:52:00,64.0,60.0,30.11,North,5,0.0,0.0,86,0.00,,,0.00,,2013-10-05 02:52:00,
2013-10-04 23:23:00,64.0,60.0,30.12,North,5,0.0,0.0,87,0.00,,,0.00,,2013-10-05 03:23:00,
2013-10-04 23:45:00,64.0,60.0,30.12,North,5,0.0,0.0,87,0.00,,,0.00,,2013-10-05 03:45:00,
2013-10-04 23:55:00,64.0,60.0,30.11,North,5,0.0,0.0,88,0.00,,,0.00,,2013-10-05 03:55:00,